createdAt,value
2023-02-02T00:00:24.412Z,99083.69
2023-02-02T00:02:51.427Z,99100.03
2023-02-02T00:05:18.112Z,99090.94
2023-02-02T00:07:44.767Z,99087.84
2023-02-02T00:10:11.600Z,99080.63
2023-02-02T00:12:38.375Z,99087.00
2023-02-02T00:15:05.700Z,99080.75
2023-02-02T00:17:32.545Z,99072.03
2023-02-02T00:19:59.296Z,99080.97
2023-02-02T00:22:26.015Z,99075.16
2023-02-02T00:24:52.601Z,99079.00
2023-02-02T00:27:19.248Z,99068.41
2023-02-02T00:29:45.963Z,99062.88
2023-02-02T00:32:12.627Z,99068.09
2023-02-02T00:34:39.280Z,99068.94
2023-02-02T00:37:06.137Z,99072.97
2023-02-02T00:39:32.960Z,99073.06
2023-02-02T00:41:59.973Z,99076.81
2023-02-02T00:44:45.289Z,99072.16
2023-02-02T00:47:12.135Z,99077.16
2023-02-02T00:49:38.802Z,99071.13
2023-02-02T00:52:05.804Z,99074.75
2023-02-02T00:54:32.555Z,99076.03
2023-02-02T00:56:59.320Z,99074.16
2023-02-02T00:59:26.103Z,99080.16
2023-02-02T01:01:52.808Z,99079.78
2023-02-02T01:04:19.673Z,99089.53
2023-02-02T01:06:46.434Z,99084.13
2023-02-02T01:09:13.121Z,99082.75
2023-02-02T01:11:39.767Z,99088.09
2023-02-02T01:14:06.489Z,99089.16
2023-02-02T01:16:33.254Z,99089.53
2023-02-02T01:18:59.934Z,99098.78
2023-02-02T01:21:26.666Z,99093.81
2023-02-02T01:23:53.840Z,99088.28
2023-02-02T01:26:20.579Z,99094.81
2023-02-02T01:28:47.554Z,99087.16
2023-02-02T01:31:16.708Z,99086.81
2023-02-02T01:33:44.550Z,99086.81
2023-02-02T01:36:13.859Z,99089.53
2023-02-02T01:38:40.804Z,99088.09
2023-02-02T01:41:07.844Z,99096.66
2023-02-02T01:44:04.923Z,99097.44
2023-02-02T01:46:33.763Z,99106.47
2023-02-02T01:49:06.855Z,99113.84
2023-02-02T01:51:51.849Z,99118.88
2023-02-02T01:54:32.029Z,99112.31
2023-02-02T01:57:03.118Z,99110.88
2023-02-02T01:59:30.807Z,99112.03
2023-02-02T02:01:57.924Z,99107.25
2023-02-02T02:04:25.834Z,99105.59
2023-02-02T02:06:53.911Z,99101.09
2023-02-02T02:09:21.041Z,99109.34
2023-02-02T02:11:47.919Z,99106.44
2023-02-02T02:14:33.684Z,99116.50
2023-02-02T02:17:15.150Z,99116.84
2023-02-02T02:20:18.289Z,99118.69
2023-02-02T02:23:31.309Z,99112.56
2023-02-02T02:26:22.709Z,99116.84
2023-02-02T02:29:04.181Z,99101.44
2023-02-02T02:32:12.748Z,99113.50
2023-02-02T02:35:10.182Z,99120.97
2023-02-02T02:37:47.951Z,99118.38
2023-02-02T02:40:35.051Z,99120.69
2023-02-02T02:43:19.196Z,99117.66
2023-02-02T02:45:46.414Z,99114.13
2023-02-02T02:48:13.322Z,99128.50
2023-02-02T02:50:39.962Z,99132.88
2023-02-02T02:53:10.226Z,99141.00
2023-02-02T02:55:57.683Z,99131.81
2023-02-02T02:58:37.960Z,99135.38
2023-02-02T03:01:18.033Z,99142.75
2023-02-02T03:04:23.825Z,99142.13
2023-02-02T03:06:58.663Z,99143.06
2023-02-02T03:09:33.084Z,99135.97
2023-02-02T03:12:00.089Z,99146.72
2023-02-02T03:14:26.922Z,99136.59
2023-02-02T03:16:53.814Z,99136.59
2023-02-02T03:19:20.669Z,99147.00
2023-02-02T03:21:47.361Z,99143.88
2023-02-02T03:24:14.031Z,99145.06
2023-02-02T03:26:41.364Z,99145.03
2023-02-02T03:29:08.267Z,99141.91
2023-02-02T03:31:34.933Z,99147.13
2023-02-02T03:34:01.681Z,99144.72
2023-02-02T03:36:28.312Z,99154.16
2023-02-02T03:38:55.193Z,99149.47
2023-02-02T03:41:21.866Z,99163.00
2023-02-02T03:43:48.504Z,99167.41
2023-02-02T03:46:15.315Z,99174.69
2023-02-02T03:48:42.152Z,99176.94
2023-02-02T03:51:13.024Z,99169.25
2023-02-02T03:53:40.668Z,99181.72
2023-02-02T03:56:07.471Z,99169.97
2023-02-02T03:58:34.095Z,99176.72
2023-02-02T04:01:08.664Z,99183.16
2023-02-02T04:03:35.294Z,99187.31
2023-02-02T04:06:01.959Z,99192.53
2023-02-02T04:08:28.742Z,99189.78
2023-02-02T04:10:55.374Z,99192.94
2023-02-02T04:13:22.095Z,99194.81
2023-02-02T04:15:48.847Z,99188.78
2023-02-02T04:18:15.739Z,99190.56
2023-02-02T04:20:42.406Z,99190.88
2023-02-02T04:23:09.057Z,99193.78
2023-02-02T04:25:35.738Z,99195.66
2023-02-02T04:28:02.342Z,99194.09
2023-02-02T04:30:28.989Z,99192.13
2023-02-02T04:32:56.302Z,99195.66
2023-02-02T04:35:23.600Z,99196.78
2023-02-02T04:37:50.421Z,99198.75
2023-02-02T04:40:17.186Z,99201.78
2023-02-02T04:42:45.534Z,99207.22
2023-02-02T04:45:12.300Z,99198.78
2023-02-02T04:47:38.992Z,99193.41
2023-02-02T04:50:06.251Z,99197.66
2023-02-02T04:52:33.049Z,99203.28
2023-02-02T04:54:59.638Z,99202.75
2023-02-02T04:57:26.533Z,99204.59
2023-02-02T04:59:53.140Z,99214.25
2023-02-02T05:02:19.770Z,99208.25
2023-02-02T05:04:46.691Z,99216.91
2023-02-02T05:07:13.990Z,99219.19
2023-02-02T05:09:40.597Z,99216.06
2023-02-02T05:12:07.239Z,99225.22
2023-02-02T05:14:33.941Z,99230.63
2023-02-02T05:17:00.685Z,99223.44
2023-02-02T05:19:27.343Z,99224.09
2023-02-02T05:21:54.958Z,99233.34
2023-02-02T05:24:21.846Z,99230.22
2023-02-02T05:26:48.563Z,99238.34
2023-02-02T05:29:15.294Z,99238.16
2023-02-02T05:31:42.012Z,99235.97
2023-02-02T05:34:11.755Z,99239.09
2023-02-02T05:36:38.593Z,99240.22
2023-02-02T05:39:05.820Z,99238.34
2023-02-02T05:41:32.596Z,99234.06
2023-02-02T05:44:00.135Z,99250.41
2023-02-02T05:46:26.766Z,99252.41
2023-02-02T05:48:53.949Z,99254.78
2023-02-02T05:51:24.574Z,99250.34
2023-02-02T05:53:51.358Z,99258.16
2023-02-02T05:56:18.050Z,99270.63
2023-02-02T05:58:47.474Z,99277.91
2023-02-02T06:01:14.414Z,99269.38
2023-02-02T06:03:41.086Z,99269.91
2023-02-02T06:06:07.983Z,99268.13
2023-02-02T06:08:35.434Z,99271.59
2023-02-02T06:11:12.457Z,99278.88
2023-02-02T06:13:39.219Z,99267.94
2023-02-02T06:16:06.584Z,99267.19
2023-02-02T06:18:34.296Z,99275.69
2023-02-02T06:21:02.238Z,99276.28
2023-02-02T06:23:28.889Z,99261.56
2023-02-02T06:25:55.551Z,99261.59
2023-02-02T06:28:22.484Z,99260.75
2023-02-02T06:30:49.320Z,99267.00
2023-02-02T06:33:16.237Z,99260.66
2023-02-02T06:35:42.967Z,99265.34
2023-02-02T06:38:11.118Z,99275.84
2023-02-02T06:40:37.997Z,99280.13
2023-02-02T06:43:04.754Z,99270.69
2023-02-02T06:45:31.630Z,99279.09
2023-02-02T06:48:03.698Z,99285.19
2023-02-02T06:50:30.580Z,99291.28
2023-02-02T06:52:57.275Z,99286.53
2023-02-02T06:55:24.180Z,99290.47
2023-02-02T06:57:56.934Z,99298.00
2023-02-02T07:00:23.993Z,99295.59
2023-02-02T07:02:50.742Z,99301.72
2023-02-02T07:05:19.669Z,99299.03
2023-02-02T07:07:46.948Z,99299.94
2023-02-02T07:11:12.016Z,99301.25
2023-02-02T07:13:01.582Z,99311.50
2023-02-02T07:15:28.414Z,99306.63
2023-02-02T07:17:55.087Z,99311.66
2023-02-02T07:20:21.808Z,99318.25
2023-02-02T07:22:49.419Z,99320.38
2023-02-02T07:25:16.252Z,99331.13
2023-02-02T07:27:42.916Z,99331.25
2023-02-02T07:30:10.940Z,99334.66
2023-02-02T07:32:37.528Z,99343.03
2023-02-02T07:35:04.905Z,99340.50
2023-02-02T07:37:31.637Z,99352.88
2023-02-02T07:39:58.312Z,99361.81
2023-02-02T07:42:24.956Z,99360.84
2023-02-02T07:44:51.609Z,99364.00
2023-02-02T07:47:18.205Z,99362.06
2023-02-02T07:49:46.282Z,99367.91
2023-02-02T07:52:12.941Z,99376.09
2023-02-02T07:54:39.649Z,99372.72
2023-02-02T07:57:06.272Z,99379.31
2023-02-02T07:59:32.998Z,99377.28
2023-02-02T08:01:59.821Z,99371.22
2023-02-02T08:04:26.532Z,99378.94
2023-02-02T08:06:53.147Z,99387.47
2023-02-02T08:09:20.186Z,99388.69
2023-02-02T08:11:47.062Z,99384.50
2023-02-02T08:14:14.503Z,99388.28
2023-02-02T08:16:41.416Z,99393.38
2023-02-02T08:19:09.838Z,99394.97
2023-02-02T08:21:36.871Z,99391.28
2023-02-02T08:24:05.590Z,99401.09
2023-02-02T08:26:32.466Z,99410.72
2023-02-02T08:29:02.199Z,99404.25
2023-02-02T08:31:31.502Z,99413.97
2023-02-02T08:33:58.814Z,99407.91
2023-02-02T08:36:27.436Z,99424.41
2023-02-02T08:38:54.617Z,99421.59
2023-02-02T08:41:23.828Z,99421.81
2023-02-02T08:43:51.238Z,99419.56
2023-02-02T08:46:19.700Z,99418.41
2023-02-02T08:48:47.309Z,99416.56
2023-02-02T08:51:16.361Z,99410.34
2023-02-02T08:53:43.461Z,99418.78
2023-02-02T08:56:21.291Z,99419.88
2023-02-02T08:58:50.344Z,99427.66
2023-02-02T09:01:20.641Z,99427.72
2023-02-02T09:03:47.423Z,99429.81
2023-02-02T09:06:17.044Z,99431.22
2023-02-02T09:08:44.136Z,99437.75
2023-02-02T09:11:21.603Z,99435.16
2023-02-02T09:13:49.713Z,99431.81
2023-02-02T09:16:18.456Z,99434.78
2023-02-02T09:18:45.818Z,99440.81
2023-02-02T09:21:15.389Z,99440.63
2023-02-02T09:23:43.464Z,99447.19
2023-02-02T09:26:29.441Z,99454.47
2023-02-02T09:29:04.266Z,99450.88
2023-02-02T09:31:34.579Z,99456.75
2023-02-02T09:34:02.928Z,99453.25
2023-02-02T09:36:29.652Z,99450.41
2023-02-02T09:38:56.371Z,99457.28
2023-02-02T09:41:58.445Z,99457.28
2023-02-02T09:45:03.359Z,99455.38
2023-02-02T09:47:52.414Z,99460.63
2023-02-02T09:50:42.097Z,99467.91
2023-02-02T09:53:46.013Z,99465.97
2023-02-02T09:56:44.287Z,99473.19
2023-02-02T09:59:24.841Z,99479.84
2023-02-02T10:01:55.613Z,99473.84
2023-02-02T10:04:28.283Z,99479.47
2023-02-02T10:06:57.710Z,99481.53
2023-02-02T10:09:54.010Z,99491.78
2023-02-02T10:12:34.240Z,99494.72
2023-02-02T10:15:13.192Z,99501.50
2023-02-02T10:18:12.055Z,99504.97
2023-02-02T10:20:50.805Z,99499.22
2023-02-02T10:23:39.528Z,99505.81
2023-02-02T10:26:52.701Z,99510.50
2023-02-02T10:29:48.054Z,99511.00
2023-02-02T10:32:26.920Z,99508.28
2023-02-02T10:35:22.513Z,99495.09
2023-02-02T10:38:22.205Z,99503.63
2023-02-02T10:41:03.707Z,99508.66
2023-02-02T10:44:25.052Z,99514.00
2023-02-02T10:46:53.942Z,99515.88
2023-02-02T10:49:31.348Z,99514.88
2023-02-02T10:51:59.999Z,99526.91
2023-02-02T10:54:55.508Z,99520.38
2023-02-02T10:57:48.616Z,99525.75
2023-02-02T11:00:26.098Z,99530.44
2023-02-02T11:02:54.024Z,99534.47
2023-02-02T11:05:41.391Z,99533.13
2023-02-02T11:08:16.400Z,99534.59
2023-02-02T11:10:44.566Z,99528.59
2023-02-02T11:13:31.988Z,99536.19
2023-02-02T11:16:42.148Z,99526.66
2023-02-02T11:19:24.616Z,99525.00
2023-02-02T11:21:59.089Z,99533.19
2023-02-02T11:24:59.532Z,99532.84
2023-02-02T11:27:41.705Z,99539.06
2023-02-02T11:30:34.841Z,99543.31
2023-02-02T11:33:28.099Z,99543.41
2023-02-02T11:36:00.227Z,99534.34
2023-02-02T11:38:27.949Z,99532.75
2023-02-02T11:41:02.485Z,99521.53
2023-02-02T11:43:41.973Z,99536.28
2023-02-02T11:46:23.931Z,99539.88
2023-02-02T11:48:57.854Z,99553.19
2023-02-02T11:51:26.763Z,99553.03
2023-02-02T11:54:30.450Z,99558.72
2023-02-02T11:57:00.919Z,99551.34
2023-02-02T11:59:33.769Z,99563.91
2023-02-02T12:02:34.433Z,99562.03
2023-02-02T12:05:32.373Z,99548.63
2023-02-02T12:07:59.899Z,99551.38
2023-02-02T12:10:42.440Z,99550.91
2023-02-02T12:14:05.064Z,99560.53
2023-02-02T12:16:53.601Z,99558.94
2023-02-02T12:19:33.792Z,99557.94
2023-02-02T12:22:17.798Z,99557.50
2023-02-02T12:25:02.653Z,99569.41
2023-02-02T12:28:18.968Z,99569.25
2023-02-02T12:30:58.754Z,99563.19
2023-02-02T12:33:49.309Z,99564.63
2023-02-02T12:36:50.969Z,99561.22
2023-02-02T12:42:26.688Z,99556.91
2023-02-02T12:52:16.214Z,99569.06
2023-02-02T12:55:17.690Z,99562.91
2023-02-02T12:58:10.694Z,99570.72
2023-02-02T13:01:03.006Z,99565.94
2023-02-02T13:03:38.895Z,99555.94
2023-02-02T13:06:22.487Z,99559.09
2023-02-02T13:08:59.304Z,99571.75
2023-02-02T13:11:50.000Z,99572.06
2023-02-02T13:14:30.341Z,99577.34
2023-02-02T13:17:01.407Z,99568.53
2023-02-02T13:19:38.917Z,99564.09
2023-02-02T13:22:08.407Z,99564.19
2023-02-02T13:24:37.346Z,99577.72
2023-02-02T13:27:06.171Z,99574.38
2023-02-02T13:29:47.688Z,99571.25
2023-02-02T13:32:38.919Z,99581.66
2023-02-02T13:35:21.143Z,99572.06
2023-02-02T13:37:57.653Z,99578.66
2023-02-02T13:40:32.386Z,99575.97
2023-02-02T13:43:34.729Z,99572.75
2023-02-02T13:46:24.327Z,99574.22
2023-02-02T13:49:19.016Z,99578.53
2023-02-02T13:52:23.127Z,99584.47
2023-02-02T13:55:36.156Z,99587.53
2023-02-02T13:58:14.526Z,99594.94
2023-02-02T14:00:44.820Z,99593.66
2023-02-02T14:03:31.491Z,99598.75
2023-02-02T14:06:12.759Z,99602.66
2023-02-02T14:09:03.785Z,99601.16
2023-02-02T14:11:42.915Z,99600.34
2023-02-02T14:14:33.403Z,99607.81
2023-02-02T14:17:34.579Z,99606.63
2023-02-02T14:20:02.626Z,99603.09
2023-02-02T14:22:48.256Z,99608.88
2023-02-02T14:25:48.813Z,99618.78
2023-02-02T14:28:53.216Z,99615.31
2023-02-02T14:31:29.979Z,99623.13
2023-02-02T14:34:27.368Z,99622.28
2023-02-02T14:37:09.412Z,99623.41
2023-02-02T14:39:47.507Z,99628.25
2023-02-02T14:43:20.662Z,99631.72
2023-02-02T14:46:08.867Z,99622.06
2023-02-02T14:48:35.634Z,99631.13
2023-02-02T14:51:02.952Z,99637.06
2023-02-02T14:53:34.510Z,99640.59
2023-02-02T14:56:11.322Z,99654.25
2023-02-02T14:58:56.542Z,99648.97
2023-02-02T15:01:30.134Z,99648.66
2023-02-02T15:04:21.694Z,99653.50
2023-02-02T15:06:51.283Z,99656.19
2023-02-02T15:09:31.899Z,99664.22
2023-02-02T15:12:21.486Z,99667.44
2023-02-02T15:15:08.467Z,99668.44
2023-02-02T15:17:42.140Z,99684.78
2023-02-02T15:20:12.079Z,99685.28
2023-02-02T15:23:06.823Z,99690.75
2023-02-02T15:26:15.708Z,99692.06
2023-02-02T15:28:56.555Z,99689.88
2023-02-02T15:31:28.525Z,99694.09
2023-02-02T15:34:11.247Z,99696.38
2023-02-02T15:36:39.694Z,99702.97
2023-02-02T15:39:27.262Z,99699.63
2023-02-02T15:42:16.930Z,99695.09
2023-02-02T15:44:44.096Z,99702.81
2023-02-02T15:47:18.886Z,99703.16
2023-02-02T15:49:46.323Z,99705.16
2023-02-02T15:52:16.511Z,99712.19
2023-02-02T15:54:52.203Z,99709.84
2023-02-02T15:57:34.344Z,99730.28
2023-02-02T16:00:23.088Z,99728.47
2023-02-02T16:02:58.838Z,99730.13
2023-02-02T16:05:52.330Z,99735.94
2023-02-02T16:08:23.510Z,99748.41
2023-02-02T16:10:50.435Z,99752.94
2023-02-02T16:13:24.468Z,99753.69
2023-02-02T16:15:55.836Z,99756.63
2023-02-02T16:18:22.701Z,99766.44
2023-02-02T16:20:49.985Z,99773.72
2023-02-02T16:23:26.701Z,99771.38
2023-02-02T16:25:55.303Z,99773.13
2023-02-02T16:28:22.445Z,99788.56
2023-02-02T16:30:49.696Z,99788.38
2023-02-02T16:33:35.139Z,99778.66
2023-02-02T16:36:04.461Z,99791.66
2023-02-02T16:38:37.652Z,99785.53
2023-02-02T16:41:09.639Z,99795.19
2023-02-02T16:43:38.229Z,99790.66
2023-02-02T16:46:09.097Z,99789.13
2023-02-02T16:48:41.141Z,99805.91
2023-02-02T16:51:37.540Z,99797.19
2023-02-02T16:54:22.111Z,99794.25
2023-02-02T16:56:52.014Z,99797.44
2023-02-02T16:59:30.437Z,99798.00
2023-02-02T17:02:30.015Z,99807.09
2023-02-02T17:05:01.470Z,99804.25
2023-02-02T17:07:29.019Z,99811.78
2023-02-02T17:10:22.884Z,99805.91
2023-02-02T17:12:49.557Z,99808.09
2023-02-02T17:15:29.741Z,99811.59
2023-02-02T17:17:56.865Z,99804.34
2023-02-02T17:20:23.985Z,99805.38
2023-02-02T17:22:56.934Z,99806.84
2023-02-02T17:25:29.985Z,99814.31
2023-02-02T17:27:58.213Z,99815.91
2023-02-02T17:30:25.180Z,99819.16
2023-02-02T17:32:51.935Z,99819.91
2023-02-02T17:35:22.768Z,99829.06
2023-02-02T17:37:55.596Z,99825.03
2023-02-02T17:40:23.759Z,99834.75
2023-02-02T17:42:53.149Z,99838.75
2023-02-02T17:45:23.466Z,99833.31
2023-02-02T17:47:57.226Z,99832.25
2023-02-02T17:50:24.820Z,99821.00
2023-02-02T17:52:51.690Z,99829.06
2023-02-02T17:55:21.550Z,99830.97
2023-02-02T17:57:52.158Z,99833.75
2023-02-02T18:00:21.725Z,99839.78
2023-02-02T18:02:50.861Z,99843.97
2023-02-02T18:05:18.377Z,99836.38
2023-02-02T18:07:45.037Z,99842.22
2023-02-02T18:10:15.593Z,99839.69
2023-02-02T18:12:42.870Z,99845.97
2023-02-02T18:15:13.079Z,99844.16
2023-02-02T18:17:39.807Z,99842.56
2023-02-02T18:20:06.887Z,99838.09
2023-02-02T18:22:36.656Z,99838.09
2023-02-02T18:25:05.157Z,99826.53
2023-02-02T18:27:31.873Z,99826.03
2023-02-02T18:29:58.476Z,99831.78
2023-02-02T18:32:29.934Z,99829.44
2023-02-02T18:34:56.921Z,99835.03
2023-02-02T18:37:25.930Z,99832.91
2023-02-02T18:39:54.135Z,99842.28
2023-02-02T18:42:20.993Z,99836.63
2023-02-02T18:44:47.787Z,99824.31
2023-02-02T18:47:18.219Z,99825.03
2023-02-02T18:49:44.948Z,99819.72
2023-02-02T18:52:11.628Z,99829.69
2023-02-02T18:54:39.047Z,99829.31
2023-02-02T18:57:06.118Z,99831.31
2023-02-02T18:59:37.620Z,99828.91
2023-02-02T19:02:04.301Z,99826.69
2023-02-02T19:04:30.928Z,99818.13
2023-02-02T19:07:16.554Z,99816.31
2023-02-02T19:09:43.302Z,99813.13
2023-02-02T19:12:14.693Z,99803.72
2023-02-02T19:14:42.599Z,99801.13
2023-02-02T19:17:29.550Z,99804.88
2023-02-02T19:19:59.987Z,99802.94
2023-02-02T19:22:31.313Z,99802.88
2023-02-02T19:24:58.258Z,99790.81
2023-02-02T19:27:27.171Z,99798.53
2023-02-02T19:29:56.614Z,99801.88
2023-02-02T19:32:25.365Z,99793.66
2023-02-02T19:34:52.993Z,99798.16
2023-02-02T19:37:28.148Z,99790.13
2023-02-02T19:40:27.600Z,99801.19
2023-02-02T19:43:00.957Z,99809.91
2023-02-02T19:45:30.219Z,99810.59
2023-02-02T19:47:58.280Z,99801.72
2023-02-02T19:50:28.296Z,99800.75
2023-02-02T19:52:55.920Z,99806.88
2023-02-02T19:55:30.464Z,99815.25
2023-02-02T19:58:21.068Z,99808.59
2023-02-02T20:00:49.603Z,99803.56
2023-02-02T20:03:39.737Z,99807.06
2023-02-02T20:06:09.658Z,99800.97
2023-02-02T20:08:40.120Z,99801.72
2023-02-02T20:11:23.051Z,99789.34
2023-02-02T20:13:50.300Z,99780.63
2023-02-02T20:16:22.137Z,99792.06
2023-02-02T20:18:54.027Z,99792.78
2023-02-02T20:21:44.198Z,99781.22
2023-02-02T20:24:50.155Z,99785.81
2023-02-02T20:27:19.865Z,99791.34
2023-02-02T20:29:48.130Z,99785.50
2023-02-02T20:32:30.481Z,99779.06
2023-02-02T20:34:59.323Z,99784.16
2023-02-02T20:37:32.355Z,99790.09
2023-02-02T20:40:01.861Z,99778.81
2023-02-02T20:42:33.085Z,99783.41
2023-02-02T20:44:59.723Z,99778.03
2023-02-02T20:47:26.457Z,99783.88
2023-02-02T20:49:53.414Z,99775.94
2023-02-02T20:52:24.214Z,99765.63
2023-02-02T20:54:51.624Z,99767.69
2023-02-02T20:57:19.135Z,99773.28
2023-02-02T20:59:46.195Z,99769.75
2023-02-02T21:02:20.760Z,99772.03
2023-02-02T21:04:48.221Z,99771.69
2023-02-02T21:07:17.185Z,99774.47
2023-02-02T21:09:48.238Z,99774.88
2023-02-02T21:12:15.102Z,99783.38
2023-02-02T21:14:41.770Z,99770.13
2023-02-02T21:17:15.197Z,99779.75
2023-02-02T21:19:42.663Z,99773.81
2023-02-02T21:22:09.337Z,99769.03
2023-02-02T21:24:36.084Z,99771.34
2023-02-02T21:27:06.089Z,99765.91
2023-02-02T21:29:33.494Z,99756.78
2023-02-02T21:32:02.830Z,99760.81
2023-02-02T21:34:30.865Z,99760.47
2023-02-02T21:36:58.497Z,99760.16
2023-02-02T21:39:33.279Z,99749.22
2023-02-02T21:42:13.654Z,99750.34
2023-02-02T21:44:54.340Z,99746.03
2023-02-02T21:47:40.676Z,99744.38
2023-02-02T21:50:37.130Z,99733.31
2023-02-02T21:53:25.528Z,99740.94
2023-02-02T21:55:56.975Z,99740.09
2023-02-02T21:58:38.761Z,99735.66
2023-02-02T22:01:21.631Z,99728.44
2023-02-02T22:03:50.490Z,99737.00
2023-02-02T22:06:33.943Z,99734.66
2023-02-02T22:09:11.852Z,99724.59
2023-02-02T22:12:01.793Z,99721.41
2023-02-02T22:14:37.709Z,99720.75
2023-02-02T22:17:40.538Z,99728.91
2023-02-02T22:20:33.742Z,99726.28
2023-02-02T22:23:02.554Z,99730.88
2023-02-02T22:25:37.213Z,99737.53
2023-02-02T22:28:22.670Z,99730.63
2023-02-02T22:30:55.628Z,99735.47
2023-02-02T22:33:23.760Z,99737.34
2023-02-02T22:35:50.843Z,99733.41
2023-02-02T22:38:22.472Z,99738.25
2023-02-02T22:40:50.827Z,99732.31
2023-02-02T22:43:18.726Z,99734.47
2023-02-02T22:45:45.876Z,99747.41
2023-02-02T22:48:14.059Z,99740.69
2023-02-02T22:50:41.027Z,99741.09
2023-02-02T22:53:07.627Z,99739.09
2023-02-02T22:55:34.942Z,99737.22
2023-02-02T22:58:01.625Z,99741.63
2023-02-02T23:00:30.140Z,99742.19
2023-02-02T23:02:57.510Z,99735.50
2023-02-02T23:05:25.163Z,99732.53
2023-02-02T23:07:52.005Z,99733.28
2023-02-02T23:10:21.018Z,99726.31
2023-02-02T23:12:48.294Z,99730.25
2023-02-02T23:15:15.985Z,99732.69
2023-02-02T23:17:42.906Z,99733.53
2023-02-02T23:20:13.571Z,99727.66
2023-02-02T23:22:40.344Z,99735.28
2023-02-02T23:25:07.645Z,99734.59
2023-02-02T23:27:34.599Z,99729.38
2023-02-02T23:30:01.334Z,99733.66
2023-02-02T23:32:28.101Z,99729.22
2023-02-02T23:34:54.711Z,99717.16
2023-02-02T23:37:21.429Z,99716.97
2023-02-02T23:39:48.098Z,99715.13
2023-02-02T23:42:14.857Z,99716.13
2023-02-02T23:44:41.556Z,99717.81
2023-02-02T23:47:08.447Z,99713.25
2023-02-02T23:49:35.294Z,99711.59
2023-02-02T23:52:02.499Z,99706.69
2023-02-02T23:54:29.770Z,99692.50
2023-02-02T23:56:57.346Z,99695.19
2023-02-02T23:59:24.335Z,99694.38
